Flag for Poland

Past Weather in Częstochowa, Poland — Yesterday and Last 2 Weeks

Currently: 32 °F. Light snow. Ice fog. (Weather station: Katowice Airport, Poland). See more current weather

Past Weather in Częstochowa — Graph

°F

Częstochowa Temperature Yesterday

Maximum temperature yesterday: 50 °F (at 1:30 pm)
Minimum temperature yesterday: 34 °F (at 11:00 pm)
Average temperature yesterday: 42 °F

High & Low Weather Summary for the Past Weeks

 TemperatureHumidityPressure
High50 °F (Jan 23, 1:30 pm)100% (Jan 9, 6:30 am)30.21 "Hg (Jan 9, 6:30 am)
Low1 °F (Jan 18, 7:00 am)60% (Jan 12, 1:30 pm)29.36 "Hg (Jan 23, 2:00 pm)
Average29 °F86%29.87 "Hg
* Reported Jan 9 1:00 am — Jan 24 1:00 am, Częstochowa. Weather by CustomWeather, © 2021

Note: Actual official high and low records may vary slightly from our data, if they occured in-between our weather recording intervals... More about our weather records

Częstochowa Weather History for the Previous 24 Hours

Scroll right to see more
 ConditionsComfort  
Time TempWeatherWind HumidityBarometerVisibility
1:00 am
Sun, Jan 24
32 °FLight snow. Ice fog.2 mph100%29.42 "Hg2 mi
12:30 am32 °FLight snow. Ice fog.2 mph100%29.42 "Hg1 mi
12:00 am32 °FLight snow. Ice fog.1 mph100%29.45 "Hg2 mi
11:30 pm
Sat, Jan 23
34 °FLight rain. Fog.3 mph93%29.45 "Hg2 mi
11:00 pm34 °FLight rain. Mostly cloudy.3 mph93%29.45 "Hg4 mi
10:30 pm36 °FLight rain. Mostly cloudy.9 mph93%29.45 "Hg4 mi
10:00 pm37 °FPartly cloudy.6 mph87%29.42 "HgN/A
9:30 pm39 °FOvercast.9 mph81%29.42 "HgN/A
9:00 pm37 °FOvercast.6 mph87%29.42 "HgN/A
8:30 pm39 °FPassing clouds.6 mph81%29.42 "HgN/A
8:00 pm39 °FPassing clouds.9 mph81%29.45 "HgN/A
7:30 pm39 °FMostly cloudy.8 mph81%29.45 "HgN/A
7:00 pm41 °FOvercast.10 mph76%29.42 "HgN/A
6:30 pm41 °FOvercast.13 mph76%29.42 "HgN/A
6:00 pm41 °FMostly cloudy.12 mph76%29.42 "HgN/A
5:30 pm43 °FOvercast.10 mph71%29.42 "HgN/A
5:00 pm43 °FOvercast.14 mph76%29.42 "HgN/A
4:30 pm45 °FOvercast.13 mph76%29.42 "HgN/A
4:00 pm45 °FPartly sunny.14 mph81%29.39 "HgN/A
3:30 pm46 °FPartly sunny.13 mph76%29.39 "HgN/A
3:00 pm48 °FPartly sunny.8 mph71%29.39 "HgN/A
2:30 pm48 °FPartly sunny.13 mph71%29.36 "HgN/A
2:00 pm50 °FBroken clouds.16 mph67%29.36 "HgN/A
1:30 pm50 °FBroken clouds.15 mph67%29.39 "HgN/A
1:00 pm48 °FOvercast.13 mph71%29.39 "HgN/A
12:30 pm46 °FPartly sunny.14 mph76%29.39 "HgN/A
12:00 pm48 °FSunny.15 mph71%29.39 "Hg10 mi
11:30 am46 °FSunny.18 mph71%29.39 "Hg10 mi
11:00 am46 °FSunny.16 mph71%29.39 "Hg10 mi
10:30 am46 °FLight rain. Clear.17 mph71%29.39 "HgN/A
10:00 am46 °FSunny.17 mph71%29.39 "Hg10 mi
9:30 am46 °FSunny.18 mph71%29.39 "Hg10 mi
9:00 am45 °FSunny.17 mph76%29.39 "Hg10 mi
8:30 am41 °FSunny.10 mph87%29.39 "Hg10 mi
8:00 am41 °FSunny.9 mph81%29.42 "Hg10 mi
7:30 am43 °FSunny.9 mph81%29.42 "Hg10 mi
7:00 am43 °FClear.12 mph81%29.42 "Hg10 mi
6:30 am39 °FClear.10 mph87%29.42 "Hg10 mi
6:00 am39 °FClear.10 mph87%29.42 "Hg10 mi
5:30 am37 °FPassing clouds.10 mph93%29.42 "HgN/A
5:00 am37 °FPassing clouds.10 mph93%29.45 "HgN/A
4:30 am36 °FClear.12 mph100%29.45 "Hg10 mi
4:00 am36 °FClear.10 mph100%29.45 "Hg10 mi
3:30 am37 °FPassing clouds.10 mph93%29.45 "HgN/A
3:00 am37 °FClear.9 mph93%29.47 "Hg10 mi
2:30 am41 °FPassing clouds.12 mph81%29.47 "HgN/A
2:00 am43 °FPassing clouds.9 mph81%29.47 "HgN/A
Weather by CustomWeather, © 2021

See weather overview